Howard Lake, Minnesota
Current Conditions -  °F | °C
As of 9:35 PM on Friday 28 Nov 2014 (Local Time) from KMGG Reporting Station
Scattered Clouds Scattered Clouds  
Wind Chill: 22°   Ceiling: Unl
Heat Index: 22°   Visibility: 10mi
Dew Point: 19°   Wind: 0mph
Humidity: 88%   Direction: NA
Pressure: 29.74"   Gusts: NA
Location:  45.06°N, 94.07°W
Report Text: KMGG 290335Z AUTO 00000KT 10SM SCT014 M05/M07 A2974 RMK AO2 T10551072
Loading
Personal Weather Stations






























Interactive Weather Map New forecast layout! Learn more

10-Day Weather Forecast

Advertisements
Track Severe Weather on mobile